Time;durP1;ratioP1;P1;durP2;ratioP2;P2;SDS_P1;SDS_P2;PMS_P1;PMS_P2;Temp;Humidity;BMP_temperature;BMP_pressure;BME280_temperature;BME280_humidity;BME280_pressure;Samples;Min_cycle;Max_cycle;Signal;HPM_P1;HPM_P2
2024/04/03 00:02:22;;;;;;;19.13;17.33;;;8.50;90.70;;;;;;4995366;28;20269;-83
2024/04/03 00:04:47;;;;;;;20.50;18.33;;;8.60;90.40;;;;;;4995192;28;20178;-83
2024/04/03 00:07:13;;;;;;;20.80;18.57;;;8.40;89.90;;;;;;4994617;28;20174;-84
2024/04/03 00:09:38;;;;;;;21.70;18.03;;;8.40;90.20;;;;;;4996002;28;20667;-83
2024/04/03 00:12:04;;;;;;;19.47;17.87;;;8.30;90.00;;;;;;4993413;28;20178;-83
2024/04/03 00:14:30;;;;;;;20.87;18.77;;;8.10;90.20;;;;;;4992883;28;20194;-83
2024/04/03 00:16:55;;;;;;;19.60;17.70;;;7.90;90.50;;;;;;4993258;28;20177;-83
2024/04/03 00:19:21;;;;;;;23.00;16.17;;;7.80;90.90;;;;;;4993323;28;20277;-84
2024/04/03 00:21:47;;;;;;;18.63;16.70;;;7.80;91.10;;;;;;4994939;28;20670;-83
2024/04/03 00:24:12;;;;;;;26.90;24.53;;;7.80;91.20;;;;;;4993440;28;20245;-84
2024/04/03 00:26:38;;;;;;;26.63;23.57;;;7.70;91.60;;;;;;4994917;28;20202;-84
2024/04/03 00:29:04;;;;;;;25.60;23.20;;;7.70;91.60;;;;;;4993716;28;20178;-83
2024/04/03 00:31:29;;;;;;;26.57;22.30;;;7.60;91.70;;;;;;4994440;28;20178;-84
2024/04/03 00:33:55;;;;;;;22.40;20.20;;;7.70;91.90;;;;;;4993529;28;20248;-83
2024/04/03 00:36:20;;;;;;;22.13;20.27;;;7.70;91.90;;;;;;4995221;28;20190;-83
2024/04/03 00:38:46;;;;;;;22.67;20.83;;;7.70;92.00;;;;;;4994817;28;20185;-83
2024/04/03 00:41:11;;;;;;;21.83;19.70;;;7.60;91.80;;;;;;4993498;28;20208;-83
2024/04/03 00:43:36;;;;;;;21.40;19.10;;;7.50;91.60;;;;;;4994732;28;20209;-83
2024/04/03 00:46:05;;;;;;;19.87;18.10;;;7.60;91.60;;;;;;4993120;28;20193;-83
2024/04/03 00:48:31;;;;;;;19.90;18.10;;;7.60;91.60;;;;;;4995452;28;20201;-83
2024/04/03 00:50:57;;;;;;;20.97;18.93;;;7.60;91.60;;;;;;4993649;28;20717;-83
2024/04/03 00:53:24;;;;;;;22.30;19.97;;;7.60;91.50;;;;;;4995264;28;20198;-83
2024/04/03 00:55:50;;;;;;;21.63;19.83;;;7.60;91.50;;;;;;4994868;28;20178;-83
2024/04/03 00:58:16;;;;;;;21.97;20.13;;;7.50;91.00;;;;;;4993301;28;20233;-83
2024/04/03 01:00:42;;;;;;;20.47;18.60;;;7.50;91.20;;;;;;4994514;28;20202;-83
2024/04/03 01:03:07;;;;;;;20.40;18.70;;;7.50;91.20;;;;;;4993057;28;20194;-83
2024/04/03 01:05:33;;;;;;;21.70;19.70;;;7.60;91.40;;;;;;4994202;28;20543;-83
2024/04/03 01:07:59;;;;;;;20.73;18.93;;;7.50;91.20;;;;;;4994178;28;20175;-83
2024/04/03 01:10:26;;;;;;;21.17;19.47;;;7.60;91.30;;;;;;4993072;28;20186;-83
2024/04/03 01:12:54;;;;;;;22.03;20.13;;;7.70;91.30;;;;;;4992702;28;20205;-83
2024/04/03 01:15:20;;;;;;;22.20;20.40;;;7.70;91.10;;;;;;4993405;28;20185;-83
2024/04/03 01:17:45;;;;;;;22.40;20.63;;;7.60;91.00;;;;;;4994716;28;20182;-83
2024/04/03 01:20:12;;;;;;;22.63;20.80;;;7.60;91.00;;;;;;4993134;28;20221;-83
2024/04/03 01:22:37;;;;;;;22.13;20.30;;;7.70;91.00;;;;;;4994266;28;20186;-83
2024/04/03 01:25:03;;;;;;;23.93;21.87;;;7.60;90.70;;;;;;4993136;28;20266;-83
2024/04/03 01:27:29;;;;;;;23.60;21.80;;;7.70;90.90;;;;;;4993074;28;20174;-83
2024/04/03 01:29:55;;;;;;;23.47;21.80;;;7.70;90.70;;;;;;4992968;28;20174;-83
2024/04/03 01:32:23;;;;;;;23.33;21.57;;;7.70;90.70;;;;;;4993218;28;20178;-83
2024/04/03 01:34:49;;;;;;;23.20;21.50;;;7.70;90.70;;;;;;4994770;28;20173;-83
2024/04/03 01:37:17;;;;;;;23.77;21.97;;;7.70;90.50;;;;;;4992973;28;20174;-83
2024/04/03 01:39:42;;;;;;;24.17;22.47;;;7.60;90.50;;;;;;4993278;28;20174;-83
2024/04/03 01:42:08;;;;;;;25.40;23.40;;;7.60;90.40;;;;;;4995917;28;20231;-83
2024/04/03 01:44:33;;;;;;;16.60;15.40;;;7.60;90.40;;;;;;4996354;28;20202;-84
2024/04/03 01:46:59;;;;;;;18.13;16.70;;;7.70;90.50;;;;;;4997929;28;20737;-84
2024/04/03 01:49:25;;;;;;;16.97;15.67;;;7.70;90.30;;;;;;4996678;28;20257;-83
2024/04/03 01:51:50;;;;;;;16.90;15.60;;;7.70;90.20;;;;;;4996773;28;20321;-84
2024/04/03 01:54:16;;;;;;;15.67;14.47;;;7.70;90.10;;;;;;4996531;28;20594;-83
2024/04/03 01:56:41;;;;;;;14.50;13.47;;;7.80;89.90;;;;;;4997139;28;20188;-83
2024/04/03 01:59:07;;;;;;;16.67;15.20;;;7.70;89.80;;;;;;4997513;28;20658;-84
2024/04/03 02:01:32;;;;;;;15.60;14.60;;;7.80;89.40;;;;;;4998119;28;20276;-84
2024/04/03 02:03:58;;;;;;;16.73;15.63;;;7.60;88.80;;;;;;4997271;28;20217;-84
2024/04/03 02:06:23;;;;;;;17.20;16.00;;;7.60;88.50;;;;;;4997258;28;20186;-84
2024/04/03 02:08:49;;;;;;;16.80;15.63;;;7.50;88.50;;;;;;4996650;28;20178;-84
2024/04/03 02:11:14;;;;;;;16.83;15.63;;;7.40;88.50;;;;;;4997099;28;20182;-84
2024/04/03 02:13:40;;;;;;;16.13;15.03;;;7.40;88.50;;;;;;4996666;28;20581;-84
2024/04/03 02:16:05;;;;;;;16.33;15.23;;;7.30;88.60;;;;;;4998258;28;20260;-84
2024/04/03 02:18:31;;;;;;;16.07;14.97;;;7.30;88.80;;;;;;4996014;28;20186;-84
2024/04/03 02:20:56;;;;;;;16.90;15.73;;;7.30;88.80;;;;;;4995434;28;20206;-84
2024/04/03 02:23:22;;;;;;;16.07;14.87;;;7.30;88.80;;;;;;4995598;28;20571;-84
2024/04/03 02:25:47;;;;;;;16.17;15.07;;;7.30;88.90;;;;;;4995418;28;20189;-84
2024/04/03 02:28:13;;;;;;;16.87;15.57;;;7.20;89.00;;;;;;4995210;28;20670;-84
2024/04/03 02:30:38;;;;;;;17.50;16.23;;;7.30;88.70;;;;;;4996470;28;20598;-84
2024/04/03 02:33:04;;;;;;;18.03;16.70;;;7.20;88.40;;;;;;4996410;28;20198;-84
2024/04/03 02:35:29;;;;;;;18.30;17.03;;;7.10;88.20;;;;;;4994867;28;20202;-84
2024/04/03 02:37:55;;;;;;;18.23;16.80;;;7.00;88.30;;;;;;4996297;28;20174;-84
2024/04/03 02:40:20;;;;;;;18.17;16.90;;;7.10;88.80;;;;;;4994926;28;20229;-84
2024/04/03 02:42:46;;;;;;;18.10;16.80;;;7.00;88.60;;;;;;4995080;28;20233;-84
2024/04/03 02:45:11;;;;;;;17.90;16.70;;;7.00;88.80;;;;;;4996232;28;20177;-84
2024/04/03 02:47:37;;;;;;;18.40;17.10;;;7.00;88.90;;;;;;4996059;28;20622;-84
2024/04/03 02:50:03;;;;;;;28.87;26.97;;;7.00;88.60;;;;;;4994704;28;20598;-84
2024/04/03 02:52:28;;;;;;;26.67;24.87;;;6.90;88.20;;;;;;4994648;28;20197;-83
2024/04/03 02:54:54;;;;;;;25.23;23.63;;;7.00;88.20;;;;;;4995394;28;20177;-84
2024/04/03 02:57:19;;;;;;;24.70;23.03;;;6.90;88.00;;;;;;4994717;28;20539;-83
2024/04/03 02:59:45;;;;;;;25.07;23.47;;;6.70;87.70;;;;;;4994928;28;20555;-84
2024/04/03 03:02:10;;;;;;;25.13;23.47;;;6.70;87.90;;;;;;4995077;28;20177;-84
2024/04/03 03:04:41;;;;;;;24.83;23.23;;;6.60;88.10;;;;;;4996104;28;20194;-83
2024/04/03 03:07:08;;;;;;;23.80;22.20;;;6.50;88.00;;;;;;4996187;28;20224;-83
2024/04/03 03:09:33;;;;;;;23.20;21.70;;;6.30;87.80;;;;;;4994722;28;20554;-84
2024/04/03 03:11:59;;;;;;;22.67;21.27;;;6.10;88.10;;;;;;4994783;28;20273;-83
2024/04/03 03:14:25;;;;;;;21.53;20.13;;;6.10;88.40;;;;;;4994745;28;20682;-83
2024/04/03 03:16:50;;;;;;;21.63;20.23;;;6.00;88.40;;;;;;4996063;28;20178;-83
2024/04/03 03:19:16;;;;;;;20.53;19.23;;;5.90;88.40;;;;;;4995819;28;20546;-83
2024/04/03 03:21:41;;;;;;;19.97;18.67;;;5.80;88.50;;;;;;4995530;28;20190;-83
2024/04/03 03:24:07;;;;;;;20.00;18.70;;;5.80;88.70;;;;;;4994375;28;20194;-83
2024/04/03 03:26:32;;;;;;;20.33;19.00;;;5.70;88.70;;;;;;4995538;28;20178;-83
2024/04/03 03:28:58;;;;;;;19.97;18.67;;;5.70;88.70;;;;;;4995492;28;20646;-84
2024/04/03 03:31:23;;;;;;;21.43;20.03;;;5.80;88.90;;;;;;4994421;28;20170;-84
2024/04/03 03:33:49;;;;;;;20.30;19.00;;;5.80;89.00;;;;;;4994488;28;20198;-85
2024/04/03 03:36:14;;;;;;;19.20;17.90;;;5.80;89.00;;;;;;4994194;28;20581;-84
2024/04/03 03:38:39;;;;;;;19.83;18.53;;;5.80;88.90;;;;;;4995950;28;20240;-84
2024/04/03 03:41:05;;;;;;;21.27;19.87;;;5.80;89.00;;;;;;4995410;28;20713;-84
2024/04/03 03:43:31;;;;;;;19.90;18.60;;;5.80;89.10;;;;;;4996834;28;20194;-84
2024/04/03 03:45:56;;;;;;;20.97;19.57;;;5.70;89.10;;;;;;4996340;28;20222;-84
2024/04/03 03:53:58;;;;;;;20.70;19.30;;;5.50;88.70;;;;;;4996417;28;20281;-84
2024/04/03 03:56:24;;;;;;;20.60;19.20;;;5.50;88.90;;;;;;4996383;28;20212;-84
2024/04/03 03:58:50;;;;;;;21.03;19.63;;;5.50;88.90;;;;;;4996356;28;20178;-85
2024/04/03 04:01:16;;;;;;;20.70;19.30;;;5.40;88.80;;;;;;4994901;28;20736;-84
2024/04/03 04:03:41;;;;;;;13.00;12.07;;;5.40;88.90;;;;;;4996026;28;20194;-84
2024/04/03 04:06:07;;;;;;;13.33;12.33;;;5.40;88.90;;;;;;4995086;28;20194;-84
2024/04/03 04:08:32;;;;;;;13.43;12.27;;;5.40;88.80;;;;;;4996174;28;20178;-84
2024/04/03 04:11:00;;;;;;;13.67;12.57;;;5.40;88.90;;;;;;4994806;28;20186;-83
2024/04/03 04:13:26;;;;;;;13.83;12.83;;;5.40;88.90;;;;;;4995686;28;20216;-83
2024/04/03 04:15:52;;;;;;;13.77;12.77;;;5.30;88.90;;;;;;4994566;28;20268;-83
2024/04/03 04:18:18;;;;;;;13.63;12.63;;;5.40;89.00;;;;;;4996239;28;20202;-84
2024/04/03 04:20:52;;;;;;;13.83;12.83;;;5.30;89.00;;;;;;4994810;28;20208;-83
2024/04/03 04:23:17;;;;;;;12.97;11.97;;;5.30;89.00;;;;;;4996583;28;20214;-83
2024/04/03 04:25:56;;;;;;;13.60;12.70;;;5.40;89.10;;;;;;4996431;28;20665;-83
2024/04/03 04:28:23;;;;;;;13.80;12.73;;;5.40;89.00;;;;;;4996320;28;20151;-84
2024/04/03 04:30:56;;;;;;;15.00;13.90;;;5.30;88.50;;;;;;4995573;28;20201;-83
2024/04/03 04:33:21;;;;;;;14.67;13.67;;;5.30;88.30;;;;;;4996068;28;20196;-84
2024/04/03 04:35:57;;;;;;;14.30;13.30;;;5.30;88.20;;;;;;4994355;28;20181;-84
2024/04/03 04:38:24;;;;;;;14.57;13.47;;;5.30;88.20;;;;;;4995877;28;20180;-84
2024/04/03 04:40:53;;;;;;;15.20;14.00;;;5.30;88.10;;;;;;4995853;28;20197;-84
2024/04/03 04:43:18;;;;;;;14.93;13.83;;;5.20;88.10;;;;;;4994773;28;20250;-83
2024/04/03 04:45:44;;;;;;;14.83;13.77;;;5.20;88.00;;;;;;4994060;28;20231;-83
2024/04/03 04:48:09;;;;;;;15.10;13.93;;;5.30;88.30;;;;;;4995389;28;20213;-84
2024/04/03 04:50:35;;;;;;;15.27;14.13;;;5.30;88.40;;;;;;4994306;28;20680;-84
2024/04/03 04:53:00;;;;;;;15.37;14.17;;;5.30;88.60;;;;;;4995596;28;20244;-84
2024/04/03 04:55:26;;;;;;;15.40;14.17;;;5.30;88.70;;;;;;4995590;28;20196;-84
2024/04/03 04:57:51;;;;;;;14.83;13.73;;;5.30;88.70;;;;;;4994224;28;20272;-84
2024/04/03 05:00:17;;;;;;;14.83;13.63;;;5.20;88.80;;;;;;4995215;28;20293;-83
2024/04/03 05:02:42;;;;;;;13.77;12.63;;;5.20;88.70;;;;;;4995972;28;20251;-83
2024/04/03 05:05:08;;;;;;;14.10;12.93;;;5.10;88.70;;;;;;4994117;28;20185;-84
2024/04/03 05:07:33;;;;;;;15.70;14.57;;;5.20;88.90;;;;;;4996104;28;20178;-83
2024/04/03 05:09:59;;;;;;;20.10;18.70;;;5.20;88.90;;;;;;4994292;28;20185;-83
2024/04/03 05:12:25;;;;;;;20.53;19.03;;;5.20;89.00;;;;;;4995207;28;20171;-83
2024/04/03 05:14:50;;;;;;;17.97;16.27;;;5.10;89.10;;;;;;4995488;28;20205;-84
2024/04/03 05:17:16;;;;;;;17.63;16.33;;;5.10;89.00;;;;;;4997374;28;20178;-83
2024/04/03 05:19:41;;;;;;;19.33;17.63;;;5.00;88.90;;;;;;4999903;28;20217;-83
2024/04/03 05:22:10;;;;;;;18.00;16.30;;;5.00;88.90;;;;;;4999871;28;20233;-84
2024/04/03 05:24:36;;;;;;;17.90;16.60;;;5.00;88.80;;;;;;4997688;28;20659;-83
2024/04/03 05:27:01;;;;;;;19.20;17.70;;;5.00;88.70;;;;;;4999529;28;20216;-83
2024/04/03 05:29:27;;;;;;;18.13;16.83;;;5.00;88.70;;;;;;4997696;28;20182;-84
2024/04/03 05:31:53;;;;;;;18.10;16.70;;;5.10;88.70;;;;;;4999364;28;20181;-84
2024/04/03 05:34:18;;;;;;;18.00;16.70;;;5.10;88.80;;;;;;4997635;28;20694;-84
2024/04/03 05:36:45;;;;;;;17.50;16.30;;;5.10;88.60;;;;;;4997725;28;20668;-83
2024/04/03 05:39:10;;;;;;;17.30;16.00;;;5.10;88.50;;;;;;4999058;28;20178;-83
2024/04/03 05:41:35;;;;;;;16.67;15.17;;;5.10;88.50;;;;;;4998180;28;20216;-84
2024/04/03 05:44:01;;;;;;;18.20;16.90;;;5.10;88.60;;;;;;4998789;28;20194;-83
2024/04/03 05:46:26;;;;;;;16.90;15.70;;;5.10;88.70;;;;;;4998549;28;20595;-84
2024/04/03 05:48:52;;;;;;;17.77;16.47;;;5.10;88.70;;;;;;4997280;28;20174;-84
2024/04/03 05:51:17;;;;;;;18.27;16.97;;;5.10;88.60;;;;;;4997296;28;20177;-83
2024/04/03 05:53:43;;;;;;;18.30;17.00;;;5.10;88.50;;;;;;4998633;28;20201;-84
2024/04/03 05:56:10;;;;;;;18.80;17.50;;;5.10;88.10;;;;;;4997830;28;20185;-84
2024/04/03 05:58:35;;;;;;;18.83;17.43;;;5.10;88.10;;;;;;4999855;28;20241;-83
2024/04/03 06:01:01;;;;;;;19.40;18.00;;;5.20;88.30;;;;;;4996965;28;20233;-84
2024/04/03 06:03:27;;;;;;;17.87;16.57;;;5.10;88.00;;;;;;4998201;28;20239;-84
2024/04/03 06:05:57;;;;;;;17.70;16.30;;;5.10;88.10;;;;;;4997950;28;20181;-88
2024/04/03 06:08:23;;;;;;;18.90;17.50;;;5.00;88.20;;;;;;4996856;28;20185;-84
2024/04/03 06:10:49;;;;;;;18.60;17.17;;;5.00;88.30;;;;;;4997557;28;20235;-83
2024/04/03 06:13:16;;;;;;;19.53;18.03;;;5.00;88.40;;;;;;4998411;28;20256;-84
2024/04/03 06:15:42;;;;;;;18.33;16.93;;;5.10;88.50;;;;;;4996573;28;20188;-85
2024/04/03 06:18:07;;;;;;;14.57;13.27;;;5.10;88.60;;;;;;4996882;28;20187;-83
2024/04/03 06:20:33;;;;;;;13.40;12.37;;;5.10;88.10;;;;;;4998379;28;20198;-83
2024/04/03 06:22:59;;;;;;;13.60;12.40;;;5.10;87.80;;;;;;4997185;28;20277;-83
2024/04/03 06:25:25;;;;;;;15.80;12.43;;;5.10;88.10;;;;;;4998214;28;20260;-83
2024/04/03 06:27:51;;;;;;;13.50;12.47;;;5.10;87.90;;;;;;4998371;28;20254;-84
2024/04/03 06:30:16;;;;;;;13.57;12.47;;;5.10;87.80;;;;;;4998069;28;20613;-83
2024/04/03 06:32:42;;;;;;;13.93;12.70;;;5.10;87.60;;;;;;4998637;28;20712;-83
2024/04/03 06:35:08;;;;;;;13.90;12.80;;;5.10;87.60;;;;;;4998513;28;20262;-84
2024/04/03 06:37:34;;;;;;;14.10;13.00;;;5.10;87.60;;;;;;4996561;28;20186;-83
2024/04/03 06:39:59;;;;;;;14.47;13.03;;;5.20;88.00;;;;;;4996527;28;20273;-86
2024/04/03 06:42:25;;;;;;;13.63;12.53;;;5.20;87.90;;;;;;4997145;28;20657;-84
2024/04/03 06:44:52;;;;;;;13.73;12.63;;;5.20;88.10;;;;;;4997056;28;20182;-84
2024/04/03 06:47:17;;;;;;;14.37;13.07;;;5.30;88.10;;;;;;4997903;28;20225;-84
2024/04/03 06:49:43;;;;;;;15.07;13.83;;;5.30;88.00;;;;;;4999319;28;20181;-84
2024/04/03 06:52:08;;;;;;;13.53;12.43;;;5.30;87.90;;;;;;4998849;28;20682;-82
2024/04/03 06:54:34;;;;;;;14.97;13.37;;;5.40;88.00;;;;;;4998236;28;20256;-87
2024/04/03 06:57:01;;;;;;;14.73;13.53;;;5.40;88.00;;;;;;4996783;28;20649;-84
2024/04/03 06:59:27;;;;;;;14.90;13.70;;;5.40;87.60;;;;;;4998563;28;20310;-83
2024/04/03 07:01:52;;;;;;;14.37;13.20;;;5.50;87.60;;;;;;4998483;28;20700;-85
2024/04/03 07:04:18;;;;;;;15.07;13.47;;;5.50;87.60;;;;;;4998644;28;20669;-85
2024/04/03 07:06:43;;;;;;;14.47;13.27;;;5.50;87.50;;;;;;4999515;28;20174;-84
2024/04/03 07:09:09;;;;;;;16.17;14.60;;;5.50;87.40;;;;;;4997824;28;20185;-85
2024/04/03 07:11:34;;;;;;;15.07;13.67;;;5.70;87.70;;;;;;4998640;28;20182;-86
2024/04/03 07:14:00;;;;;;;14.67;13.47;;;5.60;87.40;;;;;;4998307;28;20201;-85
2024/04/03 07:16:25;;;;;;;14.10;13.00;;;5.60;87.30;;;;;;4998634;28;20185;-84
2024/04/03 07:18:55;;;;;;;15.60;14.30;;;5.60;87.40;;;;;;4998759;28;20188;-84
2024/04/03 07:21:21;;;;;;;13.77;12.67;;;5.50;87.30;;;;;;4996438;28;20198;-84
2024/04/03 07:23:46;;;;;;;14.27;13.07;;;5.60;87.50;;;;;;4998123;28;20214;-87
2024/04/03 07:26:12;;;;;;;13.87;12.67;;;5.60;87.70;;;;;;4997611;28;20701;-87
2024/04/03 07:28:40;;;;;;;14.43;13.20;;;5.70;88.00;;;;;;4995636;28;20201;-85
2024/04/03 07:31:06;;;;;;;15.10;13.80;;;5.80;88.10;;;;;;4995936;28;20724;-84
2024/04/03 07:33:32;;;;;;;18.60;17.23;;;5.70;87.70;;;;;;4998104;28;20233;-86
2024/04/03 07:35:59;;;;;;;20.63;19.13;;;5.80;88.10;;;;;;4995542;28;20213;-86
2024/04/03 07:38:25;;;;;;;19.37;18.00;;;5.80;87.80;;;;;;4998265;28;20170;-85
2024/04/03 07:40:50;;;;;;;20.27;18.77;;;5.80;87.70;;;;;;4996253;28;20260;-83
2024/04/03 07:43:16;;;;;;;21.07;19.57;;;5.90;87.80;;;;;;4998081;28;20194;-85
2024/04/03 07:45:42;;;;;;;19.30;17.90;;;5.80;87.50;;;;;;4997230;28;20181;-87
2024/04/03 07:48:07;;;;;;;19.50;18.10;;;5.90;87.60;;;;;;4998135;28;20666;-88
2024/04/03 07:50:33;;;;;;;20.53;19.13;;;5.90;87.40;;;;;;4995961;28;20182;-87
2024/04/03 07:52:58;;;;;;;19.20;17.90;;;5.80;87.00;;;;;;4995965;28;20693;-87
2024/04/03 07:55:24;;;;;;;18.30;16.90;;;5.90;87.10;;;;;;4996060;28;20217;-85
2024/04/03 07:57:49;;;;;;;17.67;16.37;;;5.90;87.10;;;;;;4995592;28;20177;-85
2024/04/03 08:00:15;;;;;;;17.17;15.97;;;6.00;87.30;;;;;;4995742;28;20216;-85
2024/04/03 08:02:43;;;;;;;19.73;18.20;;;6.10;87.50;;;;;;4996974;28;20614;-85
2024/04/03 08:05:10;;;;;;;18.57;17.10;;;6.00;87.00;;;;;;4997288;28;20170;-85
2024/04/03 08:07:36;;;;;;;18.90;17.60;;;6.20;87.50;;;;;;4995861;28;20189;-86
2024/04/03 08:10:08;;;;;;;18.53;17.20;;;6.10;87.10;;;;;;4997880;28;20175;-85
2024/04/03 08:12:36;;;;;;;17.97;16.63;;;6.20;87.10;;;;;;4997927;28;20197;-84
2024/04/03 08:15:01;;;;;;;18.67;17.37;;;6.30;87.50;;;;;;4997024;28;20178;-85
2024/04/03 08:17:27;;;;;;;18.87;17.57;;;6.30;87.00;;;;;;4995870;28;20178;-84
2024/04/03 08:19:55;;;;;;;18.53;17.23;;;6.30;86.90;;;;;;4995731;28;20182;-87
2024/04/03 08:22:21;;;;;;;18.73;17.43;;;6.40;87.00;;;;;;4994718;28;20304;-86
2024/04/03 08:24:47;;;;;;;19.43;17.93;;;6.40;87.00;;;;;;4997046;28;20213;-85
2024/04/03 08:27:13;;;;;;;18.93;17.63;;;6.50;87.00;;;;;;4995595;28;20174;-87
2024/04/03 08:29:46;;;;;;;19.30;17.90;;;6.40;87.00;;;;;;4995345;28;20531;-86
2024/04/03 08:32:16;;;;;;;19.63;18.23;;;6.50;87.00;;;;;;4995568;28;20178;-85
2024/04/03 08:34:42;;;;;;;19.50;18.07;;;6.50;87.10;;;;;;4995196;28;20205;-84
2024/04/03 08:37:10;;;;;;;19.77;18.40;;;6.60;87.20;;;;;;4994136;28;20241;-86
2024/04/03 08:39:36;;;;;;;21.37;19.77;;;6.50;86.80;;;;;;4995538;28;20178;-87
2024/04/03 08:42:02;;;;;;;20.60;19.10;;;6.50;87.20;;;;;;4996667;28;20216;-86
2024/04/03 08:44:35;;;;;;;18.03;16.73;;;6.60;87.50;;;;;;4994419;28;20198;-87
2024/04/03 08:47:01;;;;;;;20.40;18.90;;;6.70;87.70;;;;;;4994332;28;20205;-85
2024/04/03 08:49:29;;;;;;;20.23;18.73;;;6.70;87.70;;;;;;4996566;28;20178;-85
2024/04/03 08:52:11;;;;;;;19.20;17.80;;;6.70;87.90;;;;;;4997498;28;20682;-87
2024/04/03 08:54:40;;;;;;;19.90;18.40;;;6.80;88.00;;;;;;5000243;28;20212;-86
2024/04/03 08:57:07;;;;;;;18.37;16.97;;;6.70;87.70;;;;;;4998380;28;20185;-85
2024/04/03 08:59:38;;;;;;;14.33;13.13;;;6.70;88.00;;;;;;4999858;28;20221;-87
2024/04/03 09:02:04;;;;;;;15.80;14.30;;;6.70;88.20;;;;;;4998333;28;20205;-85
2024/04/03 09:04:29;;;;;;;13.13;12.07;;;6.80;88.40;;;;;;4997934;28;20193;-87
2024/04/03 09:06:55;;;;;;;13.67;12.57;;;6.80;88.40;;;;;;4998126;28;20178;-84
2024/04/03 09:09:24;;;;;;;14.23;13.03;;;6.70;87.80;;;;;;4999826;28;20182;-85
2024/04/03 09:11:51;;;;;;;13.20;12.20;;;6.70;87.90;;;;;;4998482;28;20733;-86
2024/04/03 09:14:20;;;;;;;13.77;12.67;;;6.80;88.20;;;;;;5000594;28;20197;-86
2024/04/03 09:16:46;;;;;;;13.37;12.27;;;6.90;88.30;;;;;;4999649;28;20197;-85
2024/04/03 09:19:12;;;;;;;13.90;12.53;;;7.00;88.50;;;;;;4999413;28;20181;-86
2024/04/03 09:21:37;;;;;;;13.40;12.30;;;7.10;88.60;;;;;;4998584;28;20210;-87
2024/04/03 09:24:03;;;;;;;13.93;12.63;;;7.10;88.40;;;;;;4998333;28;20194;-86
2024/04/03 09:26:28;;;;;;;14.07;12.87;;;7.00;88.00;;;;;;4999761;28;20192;-86
2024/04/03 09:29:04;;;;;;;13.50;12.30;;;7.20;88.70;;;;;;4999562;28;20614;-84
2024/04/03 09:31:30;;;;;;;13.87;12.77;;;7.20;88.40;;;;;;4999261;28;20221;-87
2024/04/03 09:33:56;;;;;;;15.10;13.70;;;7.30;88.90;;;;;;4999281;28;20206;-84
2024/04/03 09:36:22;;;;;;;14.90;13.60;;;7.40;89.10;;;;;;4999092;28;20232;-86
2024/04/03 09:38:49;;;;;;;14.80;13.60;;;7.40;88.70;;;;;;4999627;28;20178;-86
2024/04/03 09:41:16;;;;;;;16.33;14.73;;;7.50;88.80;;;;;;4999218;28;20206;-84
2024/04/03 09:43:44;;;;;;;16.20;14.80;;;7.60;88.60;;;;;;4999197;28;20240;-84
2024/04/03 09:46:13;;;;;;;15.70;14.27;;;7.70;89.10;;;;;;4999083;28;20666;-86
2024/04/03 09:48:40;;;;;;;16.73;14.97;;;7.70;88.40;;;;;;4999729;28;20186;-86
2024/04/03 09:51:06;;;;;;;15.77;14.37;;;7.70;88.70;;;;;;4998012;28;20178;-87
2024/04/03 09:53:32;;;;;;;15.00;13.60;;;7.70;88.70;;;;;;4999186;28;20200;-87
2024/04/03 09:55:58;;;;;;;16.07;14.47;;;7.80;88.60;;;;;;4998629;28;20232;-86
2024/04/03 09:58:27;;;;;;;15.70;14.37;;;7.90;88.80;;;;;;4998783;28;20178;-87
2024/04/03 10:00:58;;;;;;;14.70;13.40;;;7.90;88.80;;;;;;4996930;28;20237;-85
2024/04/03 10:03:27;;;;;;;16.10;14.70;;;8.00;88.60;;;;;;4997743;28;20579;-84
2024/04/03 10:06:03;;;;;;;16.37;14.87;;;8.00;88.60;;;;;;4997845;28;20189;-85
2024/04/03 10:08:34;;;;;;;16.77;15.10;;;8.20;88.90;;;;;;4997974;28;20526;-85
2024/04/03 10:11:07;;;;;;;16.83;15.33;;;8.30;89.00;;;;;;4998403;28;20178;-85
2024/04/03 10:13:40;;;;;;;15.93;14.43;;;8.40;88.80;;;;;;4998390;28;20202;-86
2024/04/03 10:16:12;;;;;;;16.63;15.03;;;8.40;88.50;;;;;;4998852;28;20631;-84
2024/04/03 10:18:45;;;;;;;17.27;15.67;;;8.40;88.40;;;;;;4997318;28;20182;-85
2024/04/03 10:21:11;;;;;;;16.83;14.90;;;8.50;88.40;;;;;;4996658;28;20225;-85
2024/04/03 10:23:48;;;;;;;17.57;15.87;;;8.60;88.90;;;;;;4998405;28;20202;-85
2024/04/03 10:26:15;;;;;;;16.57;14.97;;;8.60;88.60;;;;;;4998065;28;20166;-85
2024/04/03 10:28:41;;;;;;;16.23;14.70;;;8.60;88.80;;;;;;4997785;28;20181;-84
2024/04/03 10:31:07;;;;;;;17.20;15.37;;;8.60;88.80;;;;;;4996689;28;20276;-85
2024/04/03 10:33:33;;;;;;;17.43;15.70;;;8.60;89.00;;;;;;4997838;28;20572;-84
2024/04/03 10:35:59;;;;;;;17.63;15.73;;;8.80;89.40;;;;;;4997029;28;20174;-84
2024/04/03 10:38:25;;;;;;;17.73;15.93;;;8.70;89.10;;;;;;4998003;28;20177;-84
2024/04/03 10:40:51;;;;;;;16.83;15.13;;;8.70;89.10;;;;;;4996887;28;20210;-86
2024/04/03 10:43:17;;;;;;;20.73;16.50;;;8.80;89.00;;;;;;4996666;28;20202;-86
2024/04/03 10:45:52;;;;;;;18.87;16.53;;;8.90;89.20;;;;;;4998011;28;20229;-86
2024/04/03 10:48:20;;;;;;;19.87;15.73;;;9.10;89.60;;;;;;4998129;28;20225;-88
2024/04/03 10:50:46;;;;;;;23.73;16.70;;;9.00;89.10;;;;;;4998892;28;20182;-87
2024/04/03 10:53:24;;;;;;;20.27;16.93;;;9.20;89.50;;;;;;5046517;22;20307;-88
2024/04/03 10:55:51;;;;;;;19.47;16.77;;;9.20;89.30;;;;;;5037570;28;20157;-85
2024/04/03 10:58:16;;;;;;;18.93;16.70;;;9.20;88.90;;;;;;5037082;28;20256;-86
2024/04/03 11:00:45;;;;;;;21.47;17.43;;;9.20;89.00;;;;;;5035733;28;20300;-84
2024/04/03 11:03:11;;;;;;;19.17;17.20;;;9.10;88.90;;;;;;5035167;28;20189;-87
2024/04/03 11:05:37;;;;;;;24.53;18.60;;;9.20;89.20;;;;;;5037186;28;20248;-88
2024/04/03 11:08:04;;;;;;;24.73;18.77;;;9.20;89.60;;;;;;5037882;28;20195;-87
2024/04/03 11:10:30;;;;;;;20.23;18.13;;;9.30;89.80;;;;;;5037640;28;20177;-85
2024/04/03 11:13:06;;;;;;;19.93;17.90;;;9.40;90.10;;;;;;5035763;28;20193;-86
2024/04/03 11:15:33;;;;;;;20.00;17.80;;;9.40;90.10;;;;;;5035544;28;20538;-86
2024/04/03 11:18:02;;;;;;;20.23;18.07;;;9.40;90.10;;;;;;5037242;28;20247;-86
2024/04/03 11:20:29;;;;;;;21.97;19.10;;;9.30;90.10;;;;;;5036501;28;20196;-86
2024/04/03 11:22:56;;;;;;;21.90;19.27;;;9.30;90.20;;;;;;5035555;28;20197;-86
2024/04/03 11:25:25;;;;;;;20.27;18.17;;;9.30;90.40;;;;;;5035332;28;20226;-85
2024/04/03 11:27:52;;;;;;;23.17;19.90;;;9.40;90.80;;;;;;5036625;28;20683;-85
2024/04/03 11:30:18;;;;;;;22.73;20.20;;;9.40;90.80;;;;;;5036406;28;20263;-86
2024/04/03 11:32:43;;;;;;;23.80;21.30;;;9.40;90.70;;;;;;5035443;28;20192;-84
2024/04/03 11:35:09;;;;;;;23.57;19.77;;;9.40;90.90;;;;;;5035364;28;20180;-87
2024/04/03 11:37:35;;;;;;;21.50;19.27;;;9.50;91.10;;;;;;5035230;28;20748;-87
2024/04/03 11:40:05;;;;;;;24.67;21.07;;;9.50;91.10;;;;;;5036704;28;20176;-87
2024/04/03 11:42:31;;;;;;;24.57;20.57;;;9.50;91.10;;;;;;5036284;28;20165;-84
2024/04/03 11:44:57;;;;;;;22.90;20.50;;;9.50;91.30;;;;;;5035934;28;20169;-84
2024/04/03 11:47:22;;;;;;;28.77;23.13;;;9.60;91.30;;;;;;5036363;28;20161;-85
2024/04/03 11:49:48;;;;;;;27.73;23.47;;;9.50;91.20;;;;;;5034629;28;20172;-84
2024/04/03 11:52:13;;;;;;;24.50;21.90;;;9.60;91.40;;;;;;5034867;28;20180;-84
2024/04/03 11:54:39;;;;;;;27.73;23.23;;;9.70;91.70;;;;;;5036555;28;20200;-84
2024/04/03 11:57:05;;;;;;;25.63;23.03;;;9.70;91.70;;;;;;5036255;28;20168;-84
2024/04/03 11:59:30;;;;;;;28.10;24.17;;;9.70;91.70;;;;;;5034947;28;20177;-86
2024/04/03 12:01:56;;;;;;;26.67;23.83;;;9.80;91.80;;;;;;5034982;28;20684;-85
2024/04/03 12:04:22;;;;;;;29.00;24.73;;;9.80;91.80;;;;;;5034903;28;20197;-85
2024/04/03 12:06:48;;;;;;;26.60;23.80;;;9.80;91.80;;;;;;5036508;28;20672;-86
2024/04/03 12:09:13;;;;;;;26.50;23.77;;;9.80;91.80;;;;;;5035102;28;20268;-84
2024/04/03 12:11:39;;;;;;;26.67;23.97;;;9.80;91.90;;;;;;5035140;28;20181;-84
2024/04/03 12:14:07;;;;;;;27.00;23.43;;;9.80;92.00;;;;;;5035111;28;20211;-86
2024/04/03 12:16:34;;;;;;;27.40;24.50;;;9.80;92.00;;;;;;5036671;28;20655;-86
2024/04/03 12:21:58;;;;;;;26.50;23.33;;;9.80;91.90;;;;;;5014018;28;20307;-86
2024/04/03 12:24:24;;;;;;;27.37;24.43;;;9.70;92.00;;;;;;5036417;28;20243;-86
2024/04/03 12:26:49;;;;;;;25.93;23.13;;;9.70;91.90;;;;;;5035616;28;20291;-86
2024/04/03 12:29:18;;;;;;;27.10;24.40;;;9.70;91.90;;;;;;5037660;28;20255;-87
2024/04/03 12:31:45;;;;;;;27.50;24.63;;;9.80;92.00;;;;;;5036030;28;20184;-87
2024/04/03 12:34:11;;;;;;;26.13;22.60;;;9.70;91.90;;;;;;5035677;28;20192;-85
2024/04/03 12:36:37;;;;;;;32.10;25.17;;;9.80;92.00;;;;;;5035715;28;20238;-86
2024/04/03 12:39:05;;;;;;;30.40;27.30;;;9.70;91.80;;;;;;5035742;28;20524;-84
2024/04/03 12:41:31;;;;;;;29.60;26.37;;;9.80;92.20;;;;;;5036111;28;20208;-84